Time;durP1;ratioP1;P1;durP2;ratioP2;P2;SDS_P1;SDS_P2;PMS_P1;PMS_P2;Temp;Humidity;BMP_temperature;BMP_pressure;BME280_temperature;BME280_humidity;BME280_pressure;Samples;Min_cycle;Max_cycle;Signal;HPM_P1;HPM_P2
2021/11/04 00:00:08;;;;;;;44.75;26.63;;;9.70;99.90;;;;;;5082929;28;20711;-80
2021/11/04 00:02:35;;;;;;;48.60;26.95;;;9.70;99.90;;;;;;5080927;28;20209;-79
2021/11/04 00:05:02;;;;;;;44.63;28.38;;;9.70;99.90;;;;;;5085004;28;20225;-80
2021/11/04 00:07:29;;;;;;;41.20;25.40;;;9.70;99.90;;;;;;5083723;28;20293;-81
2021/11/04 00:09:58;;;;;;;44.50;27.77;;;9.70;99.90;;;;;;5083489;28;20196;-79
2021/11/04 00:12:25;;;;;;;40.38;25.15;;;9.70;99.90;;;;;;5085759;28;20201;-81
2021/11/04 00:14:52;;;;;;;40.95;28.08;;;9.70;99.90;;;;;;5078799;28;20558;-80
2021/11/04 00:17:19;;;;;;;42.70;29.08;;;9.70;99.90;;;;;;5082965;28;20219;-81
2021/11/04 00:19:46;;;;;;;53.78;27.55;;;9.70;99.90;;;;;;5084248;28;20325;-81
2021/11/04 00:22:13;;;;;;;49.60;29.23;;;9.70;99.90;;;;;;5083914;28;20639;-81
2021/11/04 00:24:40;;;;;;;47.80;26.27;;;9.70;99.90;;;;;;5084352;28;20201;-80
2021/11/04 00:27:08;;;;;;;46.28;26.92;;;9.70;99.90;;;;;;5086065;28;20225;-83
2021/11/04 00:29:35;;;;;;;46.97;26.55;;;9.70;99.90;;;;;;5083227;28;20575;-81
2021/11/04 00:32:02;;;;;;;47.63;26.50;;;9.70;99.90;;;;;;5082887;28;20211;-82
2021/11/04 00:34:30;;;;;;;51.35;27.75;;;9.70;99.90;;;;;;5083501;28;20224;-82
2021/11/04 00:36:58;;;;;;;44.65;26.83;;;9.70;99.90;;;;;;5080896;28;20193;-81
2021/11/04 00:39:25;;;;;;;46.42;28.90;;;9.70;99.90;;;;;;5078683;28;20199;-80
2021/11/04 00:41:52;;;;;;;52.33;29.02;;;9.70;99.90;;;;;;5080509;28;20254;-80
2021/11/04 00:44:21;;;;;;;45.60;27.98;;;9.70;99.90;;;;;;5082047;28;20515;-80
2021/11/04 00:46:48;;;;;;;52.53;28.80;;;9.70;99.90;;;;;;5084809;28;20262;-80
2021/11/04 00:49:15;;;;;;;45.58;26.85;;;9.70;99.90;;;;;;5085267;28;20673;-80
2021/11/04 00:51:42;;;;;;;47.33;27.02;;;9.60;99.90;;;;;;5081671;28;20283;-83
2021/11/04 00:54:09;;;;;;;45.70;24.73;;;9.60;99.90;;;;;;5077955;28;20843;-82
2021/11/04 00:56:36;;;;;;;46.58;27.25;;;9.60;99.90;;;;;;5082532;28;20538;-82
2021/11/04 00:59:03;;;;;;;47.63;28.33;;;9.60;99.90;;;;;;5073738;28;20334;-81
2021/11/04 01:01:32;;;;;;;49.05;28.00;;;9.60;99.90;;;;;;5082807;28;20761;-80
2021/11/04 01:03:59;;;;;;;50.92;28.65;;;9.60;99.90;;;;;;5080301;28;20731;-82
2021/11/04 01:06:25;;;;;;;43.88;26.77;;;9.50;99.90;;;;;;5074876;28;20673;-81
2021/11/04 01:08:52;;;;;;;43.70;28.13;;;9.50;99.90;;;;;;5078480;28;20224;-82
2021/11/04 01:11:22;;;;;;;44.30;27.42;;;9.50;99.90;;;;;;5083173;28;20186;-81
2021/11/04 01:13:50;;;;;;;50.35;27.23;;;9.50;99.90;;;;;;5073646;28;20264;-80
2021/11/04 01:16:17;;;;;;;41.65;26.60;;;9.50;99.90;;;;;;5086934;28;20227;-81
2021/11/04 01:18:46;;;;;;;50.15;27.30;;;9.50;99.90;;;;;;5078195;28;20615;-80
2021/11/04 01:21:13;;;;;;;50.42;26.83;;;9.50;99.90;;;;;;5074148;28;20733;-80
2021/11/04 01:23:40;;;;;;;51.65;27.30;;;9.50;99.90;;;;;;5074478;28;20189;-80
2021/11/04 01:26:07;;;;;;;45.80;25.42;;;9.50;99.90;;;;;;5078227;28;20207;-82
2021/11/04 01:28:34;;;;;;;47.38;26.88;;;9.50;99.90;;;;;;5081272;28;20228;-80
2021/11/04 01:31:01;;;;;;;47.40;25.10;;;9.50;99.90;;;;;;5077771;28;20278;-81
2021/11/04 01:33:28;;;;;;;44.60;26.60;;;9.50;99.90;;;;;;5081815;28;20905;-80
2021/11/04 01:35:56;;;;;;;46.70;26.60;;;9.40;99.90;;;;;;5081717;28;20193;-82
2021/11/04 01:38:25;;;;;;;47.40;25.58;;;9.40;99.90;;;;;;5081305;28;20764;-83
2021/11/04 01:40:52;;;;;;;42.65;25.98;;;9.40;99.90;;;;;;5085632;28;20656;-81
2021/11/04 01:43:20;;;;;;;47.38;26.10;;;9.40;99.90;;;;;;5085118;28;20206;-81
2021/11/04 01:45:49;;;;;;;49.00;26.15;;;9.40;99.90;;;;;;5084059;28;20292;-79
2021/11/04 01:48:16;;;;;;;53.00;25.15;;;9.40;99.90;;;;;;5081386;28;20250;-80
2021/11/04 01:50:43;;;;;;;45.00;26.25;;;9.40;99.90;;;;;;5084855;28;20206;-81
2021/11/04 01:53:11;;;;;;;48.15;25.98;;;9.40;99.90;;;;;;5085112;28;20191;-80
2021/11/04 01:55:38;;;;;;;52.50;27.83;;;9.40;99.90;;;;;;5086018;28;20236;-81
2021/11/04 01:58:06;;;;;;;56.30;27.75;;;9.40;99.90;;;;;;5083655;28;20321;-81
2021/11/04 02:00:34;;;;;;;48.97;25.23;;;9.40;99.90;;;;;;5081039;28;20219;-80
2021/11/04 02:03:11;;;;;;;45.90;27.23;;;9.40;99.90;;;;;;5082048;28;20195;-82
2021/11/04 02:05:45;;;;;;;50.60;25.55;;;9.40;99.90;;;;;;5077723;28;20191;-79
2021/11/04 02:08:18;;;;;;;60.05;29.42;;;9.40;99.90;;;;;;5088636;28;20302;-80
2021/11/04 02:10:51;;;;;;;58.88;28.42;;;9.40;99.90;;;;;;5080285;28;20222;-82
2021/11/04 02:13:25;;;;;;;48.42;27.58;;;9.30;99.90;;;;;;5081373;28;20226;-80
2021/11/04 02:15:57;;;;;;;51.15;28.58;;;9.40;99.90;;;;;;5085254;28;20240;-81
2021/11/04 02:18:27;;;;;;;51.72;27.13;;;9.30;99.90;;;;;;5083461;28;20225;-80
2021/11/04 02:21:01;;;;;;;59.42;28.63;;;9.30;99.90;;;;;;5082260;28;20207;-80
2021/11/04 02:23:35;;;;;;;50.15;27.80;;;9.30;99.90;;;;;;5083274;28;20731;-80
2021/11/04 02:26:05;;;;;;;48.25;25.67;;;9.30;99.90;;;;;;5075659;28;20633;-80
2021/11/04 02:28:34;;;;;;;53.50;28.25;;;9.40;99.90;;;;;;5087217;28;20681;-81
2021/11/04 02:31:03;;;;;;;56.25;29.80;;;9.30;99.90;;;;;;5081497;28;20201;-81
2021/11/04 02:33:30;;;;;;;50.45;29.13;;;9.30;99.90;;;;;;5083028;28;20238;-80
2021/11/04 02:35:59;;;;;;;52.92;26.15;;;9.30;99.90;;;;;;5081178;28;20200;-81
2021/11/04 02:38:31;;;;;;;53.28;26.88;;;9.30;99.90;;;;;;5077434;28;20321;-82
2021/11/04 02:41:00;;;;;;;52.83;27.27;;;9.20;99.90;;;;;;5084680;28;20193;-83
2021/11/04 02:43:30;;;;;;;55.85;28.20;;;9.20;99.90;;;;;;5086689;28;20703;-81
2021/11/04 02:45:57;;;;;;;49.88;27.80;;;9.20;99.90;;;;;;5081527;28;20205;-81
2021/11/04 02:48:24;;;;;;;58.38;28.25;;;9.20;99.90;;;;;;5083971;28;20193;-80
2021/11/04 02:50:53;;;;;;;57.13;30.08;;;9.20;99.90;;;;;;5084344;28;20195;-81
2021/11/04 02:53:22;;;;;;;51.55;27.70;;;9.20;99.90;;;;;;5080375;28;20680;-81
2021/11/04 02:55:49;;;;;;;55.80;30.25;;;9.20;99.90;;;;;;5084004;28;20656;-81
2021/11/04 02:58:17;;;;;;;54.30;28.20;;;9.20;99.90;;;;;;5078373;28;20264;-81
2021/11/04 03:00:48;;;;;;;56.80;28.73;;;9.30;99.90;;;;;;5076821;28;20738;-81
2021/11/04 03:03:15;;;;;;;54.20;28.13;;;9.30;99.90;;;;;;5079250;28;20199;-82
2021/11/04 03:05:42;;;;;;;63.92;29.92;;;9.30;99.90;;;;;;5081096;28;20199;-82
2021/11/04 03:08:09;;;;;;;55.70;30.65;;;9.30;99.90;;;;;;5084699;28;20665;-80
2021/11/04 03:10:36;;;;;;;63.22;28.60;;;9.30;99.90;;;;;;5083383;28;20190;-81
2021/11/04 03:13:03;;;;;;;69.50;31.13;;;9.30;99.90;;;;;;5077335;28;20309;-82
2021/11/04 03:15:34;;;;;;;58.60;27.27;;;9.30;99.90;;;;;;5078126;28;20217;-81
2021/11/04 03:18:03;;;;;;;62.65;28.77;;;9.30;99.90;;;;;;5083219;28;20389;-82
2021/11/04 03:20:31;;;;;;;67.80;28.05;;;9.30;99.90;;;;;;5085415;28;20273;-81
2021/11/04 03:22:59;;;;;;;55.20;27.67;;;9.30;99.90;;;;;;5081759;28;20204;-81
2021/11/04 03:25:26;;;;;;;67.82;28.98;;;9.30;99.90;;;;;;5082426;28;20280;-83
2021/11/04 03:27:55;;;;;;;64.38;29.48;;;9.40;99.90;;;;;;5075030;28;20193;-81
2021/11/04 03:30:25;;;;;;;68.80;27.98;;;9.40;99.90;;;;;;5082670;28;20728;-81
2021/11/04 03:32:54;;;;;;;66.60;31.88;;;9.40;99.90;;;;;;5076166;28;20289;-80
2021/11/04 03:35:24;;;;;;;67.28;28.38;;;9.40;99.90;;;;;;5081355;28;20256;-80
2021/11/04 03:37:53;;;;;;;58.08;28.75;;;9.40;99.90;;;;;;5086005;28;20228;-81
2021/11/04 03:40:21;;;;;;;63.38;30.13;;;9.40;99.90;;;;;;5081599;28;20201;-81
2021/11/04 03:42:49;;;;;;;55.67;28.65;;;9.40;99.90;;;;;;5080122;28;20201;-81
2021/11/04 03:45:17;;;;;;;63.83;29.58;;;9.40;99.90;;;;;;5074389;28;20201;-81
2021/11/04 03:47:44;;;;;;;61.85;30.10;;;9.40;99.90;;;;;;5083508;28;20205;-82
2021/11/04 03:50:13;;;;;;;61.42;27.95;;;9.40;99.90;;;;;;5080323;28;20199;-81
2021/11/04 03:52:43;;;;;;;63.60;29.85;;;9.40;99.90;;;;;;5085554;28;20199;-80
2021/11/04 03:55:13;;;;;;;54.40;28.02;;;9.40;99.90;;;;;;5070509;28;20196;-81
2021/11/04 03:57:41;;;;;;;64.88;27.67;;;9.30;99.90;;;;;;5079027;28;20209;-83
2021/11/04 04:00:12;;;;;;;58.60;28.73;;;9.30;99.90;;;;;;5080383;28;20591;-82
2021/11/04 04:02:39;;;;;;;58.55;30.08;;;9.30;99.90;;;;;;5083889;28;20198;-81
2021/11/04 04:05:07;;;;;;;56.08;28.38;;;9.30;99.90;;;;;;5083129;28;20281;-82
2021/11/04 04:07:34;;;;;;;52.25;26.98;;;9.30;99.90;;;;;;5081347;28;20261;-80
2021/11/04 04:10:02;;;;;;;54.65;27.50;;;9.30;99.90;;;;;;5079677;28;20255;-81
2021/11/04 04:12:29;;;;;;;64.57;30.63;;;9.30;99.90;;;;;;5079861;28;20733;-81
2021/11/04 04:14:56;;;;;;;60.45;29.60;;;9.30;99.90;;;;;;5080770;28;20192;-80
2021/11/04 04:17:23;;;;;;;52.97;27.33;;;9.30;99.90;;;;;;5082733;28;20266;-82
2021/11/04 04:19:51;;;;;;;48.38;25.45;;;9.40;99.90;;;;;;5079711;28;20240;-81
2021/11/04 04:22:18;;;;;;;48.80;26.63;;;9.30;99.90;;;;;;5076251;28;20306;-81
2021/11/04 04:24:45;;;;;;;52.83;26.92;;;9.40;99.90;;;;;;5076570;28;20202;-82
2021/11/04 04:27:14;;;;;;;43.38;26.15;;;9.40;99.90;;;;;;5075012;28;20799;-81
2021/11/04 04:29:41;;;;;;;44.72;26.13;;;9.30;99.90;;;;;;5078645;28;20195;-81
2021/11/04 04:32:08;;;;;;;47.75;28.70;;;9.30;99.90;;;;;;5083015;28;20202;-82
2021/11/04 04:34:35;;;;;;;54.25;29.42;;;9.30;99.90;;;;;;5083673;28;20225;-81
2021/11/04 04:37:02;;;;;;;65.55;31.42;;;9.40;99.90;;;;;;5080251;28;20255;-83
2021/11/04 04:39:31;;;;;;;60.53;33.50;;;9.30;99.90;;;;;;5077979;28;20226;-81
2021/11/04 04:41:58;;;;;;;55.90;32.47;;;9.30;99.90;;;;;;5081665;28;20189;-83
2021/11/04 04:44:26;;;;;;;57.47;30.80;;;9.30;99.90;;;;;;5077091;28;20601;-81
2021/11/04 04:46:53;;;;;;;60.60;34.55;;;9.30;99.90;;;;;;5072728;28;20213;-81
2021/11/04 04:49:20;;;;;;;67.47;34.65;;;9.40;99.90;;;;;;5087877;28;20921;-81
2021/11/04 04:51:46;;;;;;;63.40;34.30;;;9.40;99.90;;;;;;5082207;28;20203;-81
2021/11/04 04:54:14;;;;;;;71.10;34.70;;;9.40;99.90;;;;;;5079265;28;20653;-82
2021/11/04 04:56:40;;;;;;;69.55;35.85;;;9.40;99.90;;;;;;5079432;28;20225;-83
2021/11/04 04:59:07;;;;;;;60.47;31.70;;;9.40;99.90;;;;;;5072977;28;20321;-81
2021/11/04 05:01:36;;;;;;;54.13;29.35;;;9.30;99.90;;;;;;5076297;28;20229;-81
2021/11/04 05:04:03;;;;;;;53.60;29.95;;;9.30;99.90;;;;;;5079207;28;20235;-80
2021/11/04 05:06:30;;;;;;;56.17;31.23;;;9.30;99.90;;;;;;5076947;28;20662;-81
2021/11/04 05:08:57;;;;;;;59.35;30.10;;;9.30;99.90;;;;;;5083092;28;20549;-81
2021/11/04 05:11:24;;;;;;;55.03;31.30;;;9.30;99.90;;;;;;5079771;28;20547;-80
2021/11/04 05:13:50;;;;;;;47.33;27.85;;;9.30;99.90;;;;;;5081925;28;20198;-80
2021/11/04 05:16:17;;;;;;;59.10;30.30;;;9.30;99.90;;;;;;5080455;28;20197;-82
2021/11/04 05:18:46;;;;;;;60.20;32.25;;;9.30;99.90;;;;;;5084668;28;20231;-81
2021/11/04 05:21:12;;;;;;;54.08;31.63;;;9.30;99.90;;;;;;5087585;28;20189;-81
2021/11/04 05:23:39;;;;;;;53.92;32.22;;;9.30;99.90;;;;;;5082271;28;20232;-81
2021/11/04 05:26:06;;;;;;;58.47;29.95;;;9.30;99.90;;;;;;5082383;28;20209;-81
2021/11/04 05:28:33;;;;;;;57.05;32.53;;;9.30;99.90;;;;;;5080192;28;20676;-81
2021/11/04 05:31:01;;;;;;;58.83;30.58;;;9.30;99.90;;;;;;5082859;28;20211;-81
2021/11/04 05:33:28;;;;;;;52.42;29.75;;;9.30;99.90;;;;;;5083898;28;20199;-80
2021/11/04 05:35:57;;;;;;;53.88;30.17;;;9.40;99.90;;;;;;5083848;28;20201;-80
2021/11/04 05:38:23;;;;;;;60.25;33.25;;;9.30;99.90;;;;;;5079447;28;20673;-80
2021/11/04 05:40:50;;;;;;;62.20;35.78;;;9.40;99.90;;;;;;5084409;28;20221;-80
2021/11/04 05:43:17;;;;;;;58.13;34.10;;;9.40;99.90;;;;;;5084497;28;20206;-82
2021/11/04 05:45:44;;;;;;;64.03;34.90;;;9.30;99.90;;;;;;5075691;28;20206;-81
2021/11/04 05:48:11;;;;;;;63.20;33.47;;;9.40;99.90;;;;;;5084958;28;20197;-80
2021/11/04 05:50:38;;;;;;;60.05;30.90;;;9.30;99.90;;;;;;5087970;28;20285;-80
2021/11/04 05:53:06;;;;;;;55.47;32.10;;;9.40;99.90;;;;;;5082321;28;20200;-81
2021/11/04 05:55:33;;;;;;;60.10;30.92;;;9.30;99.90;;;;;;5083151;28;20204;-80
2021/11/04 05:58:00;;;;;;;60.60;31.98;;;9.30;99.90;;;;;;5083311;28;20660;-80
2021/11/04 06:00:27;;;;;;;58.08;31.95;;;9.30;99.90;;;;;;5082445;28;20238;-82
2021/11/04 06:02:54;;;;;;;56.75;29.65;;;9.40;99.90;;;;;;5079617;28;20219;-80
2021/11/04 06:05:21;;;;;;;54.47;29.35;;;9.30;99.90;;;;;;5081649;28;20605;-81
2021/11/04 06:07:48;;;;;;;58.38;28.15;;;9.30;99.90;;;;;;5076859;28;20198;-81
2021/11/04 06:10:17;;;;;;;56.95;32.80;;;9.30;99.90;;;;;;5076379;28;20279;-80
2021/11/04 06:12:43;;;;;;;54.00;29.27;;;9.30;99.90;;;;;;5077710;28;20202;-83
2021/11/04 06:15:10;;;;;;;59.65;31.05;;;9.30;99.90;;;;;;5079852;28;20285;-81
2021/11/04 06:17:37;;;;;;;57.97;31.30;;;9.30;99.90;;;;;;5079212;28;20195;-80
2021/11/04 06:20:05;;;;;;;55.97;34.25;;;9.30;99.90;;;;;;5080191;28;20219;-80
2021/11/04 06:22:32;;;;;;;53.70;31.52;;;9.30;99.90;;;;;;5078201;28;20209;-80
2021/11/04 06:24:59;;;;;;;43.33;26.27;;;9.30;99.90;;;;;;5068736;28;20195;-82
2021/11/04 06:27:27;;;;;;;44.45;28.05;;;9.30;99.90;;;;;;5079652;28;20199;-81
2021/11/04 06:29:54;;;;;;;45.63;24.70;;;9.30;99.90;;;;;;5072950;28;20276;-80
2021/11/04 06:32:21;;;;;;;42.55;24.70;;;9.30;99.90;;;;;;5081350;28;20595;-82
2021/11/04 06:34:48;;;;;;;44.75;25.17;;;9.30;99.90;;;;;;5074793;28;20307;-80
2021/11/04 06:37:15;;;;;;;48.78;26.88;;;9.30;99.90;;;;;;5074499;28;20533;-82
2021/11/04 06:39:42;;;;;;;40.25;23.48;;;9.30;99.90;;;;;;5080756;28;20221;-82
2021/11/04 06:42:08;;;;;;;38.33;24.33;;;9.30;99.90;;;;;;5073046;28;20204;-82
2021/11/04 06:44:37;;;;;;;47.28;25.38;;;9.30;99.90;;;;;;5070024;28;20647;-81
2021/11/04 06:47:10;;;;;;;46.97;26.17;;;9.20;99.90;;;;;;5079680;28;20645;-82
2021/11/04 06:49:39;;;;;;;39.15;23.98;;;9.30;99.90;;;;;;5074185;28;20216;-81
2021/11/04 06:52:10;;;;;;;43.28;24.80;;;9.30;99.90;;;;;;5075049;28;20210;-80
2021/11/04 06:54:39;;;;;;;43.70;23.92;;;9.30;99.90;;;;;;5074887;28;20200;-80
2021/11/04 06:57:11;;;;;;;37.92;23.95;;;9.30;99.90;;;;;;5076312;28;20234;-81
2021/11/04 06:59:41;;;;;;;33.88;20.90;;;9.30;99.90;;;;;;5076654;28;20218;-81
2021/11/04 07:02:12;;;;;;;34.13;22.23;;;9.30;99.90;;;;;;5078845;28;20293;-80
2021/11/04 07:04:42;;;;;;;41.35;23.60;;;9.20;99.90;;;;;;5083576;28;20216;-80
2021/11/04 07:07:10;;;;;;;54.05;34.70;;;9.20;99.90;;;;;;5073915;28;20198;-80
2021/11/04 07:09:40;;;;;;;35.67;24.10;;;9.20;99.90;;;;;;5076556;28;20200;-81
2021/11/04 07:12:09;;;;;;;39.03;23.65;;;9.20;99.90;;;;;;5076033;28;20202;-80
2021/11/04 07:14:41;;;;;;;34.58;22.58;;;9.20;99.90;;;;;;5074859;28;20341;-83
2021/11/04 07:17:08;;;;;;;35.33;22.25;;;9.20;99.90;;;;;;5071891;28;20984;-82
2021/11/04 07:19:36;;;;;;;32.25;20.75;;;9.20;99.90;;;;;;5072059;28;20312;-81
2021/11/04 07:22:14;;;;;;;36.63;21.80;;;9.10;99.90;;;;;;5067756;28;20198;-81
2021/11/04 07:24:46;;;;;;;38.25;23.40;;;9.10;99.90;;;;;;5068169;28;20208;-81
2021/11/04 07:27:17;;;;;;;35.85;22.63;;;9.10;99.90;;;;;;5069151;28;20215;-82
2021/11/04 07:29:47;;;;;;;30.77;19.48;;;9.10;99.90;;;;;;5076981;28;20268;-83
2021/11/04 07:32:16;;;;;;;34.92;21.23;;;9.10;99.90;;;;;;5075079;28;20663;-81
2021/11/04 07:34:45;;;;;;;31.23;20.08;;;9.10;99.90;;;;;;5077256;28;20225;-82
2021/11/04 07:37:13;;;;;;;30.33;21.20;;;9.10;99.90;;;;;;5075735;28;20239;-81
2021/11/04 07:39:43;;;;;;;31.45;20.98;;;9.10;99.90;;;;;;5074914;28;20217;-81
2021/11/04 07:42:11;;;;;;;32.20;19.38;;;9.10;99.90;;;;;;5073344;28;20194;-81
2021/11/04 07:44:38;;;;;;;30.98;18.48;;;9.10;99.90;;;;;;5072428;28;20260;-83
2021/11/04 07:47:08;;;;;;;27.55;16.80;;;9.20;99.90;;;;;;5082106;28;20200;-81
2021/11/04 07:49:35;;;;;;;28.50;19.33;;;9.20;99.90;;;;;;5076417;28;20201;-81
2021/11/04 07:52:02;;;;;;;26.33;19.27;;;9.20;99.90;;;;;;5079512;28;20201;-81
2021/11/04 07:54:31;;;;;;;27.90;18.58;;;9.20;99.90;;;;;;5071636;28;20278;-83
2021/11/04 07:56:57;;;;;;;29.70;19.15;;;9.20;99.90;;;;;;5077876;28;20259;-81
2021/11/04 07:59:26;;;;;;;31.23;21.35;;;9.20;99.90;;;;;;5069280;28;20701;-81
2021/11/04 08:01:55;;;;;;;33.42;20.63;;;9.20;99.90;;;;;;5079579;28;20230;-81
2021/11/04 08:04:23;;;;;;;34.97;21.40;;;9.20;99.90;;;;;;5079118;28;20540;-83
2021/11/04 08:06:50;;;;;;;35.88;21.73;;;9.20;99.90;;;;;;5074270;28;20553;-83
2021/11/04 08:09:17;;;;;;;34.78;23.10;;;9.30;99.90;;;;;;5070156;28;20203;-81
2021/11/04 08:11:44;;;;;;;34.33;22.00;;;9.30;99.90;;;;;;5078969;28;20650;-82
2021/11/04 08:14:11;;;;;;;36.22;22.13;;;9.30;99.90;;;;;;5077864;28;20658;-83
2021/11/04 08:16:37;;;;;;;35.53;22.67;;;9.30;99.90;;;;;;5073852;28;20197;-83
2021/11/04 08:19:05;;;;;;;42.53;24.52;;;9.30;99.90;;;;;;5068505;28;20198;-82
2021/11/04 08:21:33;;;;;;;39.25;24.60;;;9.30;99.90;;;;;;5076879;28;20706;-81
2021/11/04 08:24:00;;;;;;;40.13;24.55;;;9.30;99.90;;;;;;5073943;28;20213;-83
2021/11/04 08:26:27;;;;;;;42.60;23.52;;;9.30;99.90;;;;;;5068664;28;20226;-83
2021/11/04 08:28:55;;;;;;;40.58;25.65;;;9.30;99.90;;;;;;5081580;28;20202;-81
2021/11/04 08:31:22;;;;;;;42.00;24.67;;;9.30;99.90;;;;;;5073040;28;20202;-84
2021/11/04 08:33:49;;;;;;;46.70;27.25;;;9.40;99.90;;;;;;5067328;28;20221;-81
2021/11/04 08:36:16;;;;;;;50.60;26.60;;;9.40;99.90;;;;;;5067976;28;20284;-82
2021/11/04 08:38:44;;;;;;;45.83;25.92;;;9.40;99.90;;;;;;5080275;28;20198;-84
2021/11/04 08:41:11;;;;;;;54.00;27.63;;;9.40;99.90;;;;;;5074693;28;20228;-83
2021/11/04 08:43:38;;;;;;;52.92;29.42;;;9.40;99.90;;;;;;5075420;28;20204;-81
2021/11/04 08:46:06;;;;;;;61.05;31.48;;;9.40;99.90;;;;;;5074048;28;20551;-84
2021/11/04 08:48:33;;;;;;;65.35;33.58;;;9.50;99.90;;;;;;5073435;28;20197;-80
2021/11/04 08:51:00;;;;;;;61.92;32.65;;;9.50;99.90;;;;;;5079745;28;20209;-82
2021/11/04 08:53:27;;;;;;;59.38;32.15;;;9.50;99.90;;;;;;5074332;28;20216;-80
2021/11/04 08:55:56;;;;;;;59.30;33.03;;;9.50;99.90;;;;;;5073403;28;20249;-82
2021/11/04 08:58:23;;;;;;;61.80;33.30;;;9.60;99.90;;;;;;5073410;28;20210;-82
2021/11/04 09:00:51;;;;;;;59.80;31.83;;;9.60;99.90;;;;;;5075332;28;20238;-80
2021/11/04 09:03:18;;;;;;;64.65;31.23;;;9.60;99.90;;;;;;5072675;28;20194;-83
2021/11/04 09:05:45;;;;;;;68.63;33.83;;;9.60;99.90;;;;;;5068923;28;20206;-81
2021/11/04 09:08:12;;;;;;;59.42;33.22;;;9.70;99.90;;;;;;5074398;28;20199;-83
2021/11/04 09:10:40;;;;;;;68.90;33.47;;;9.70;99.90;;;;;;5068310;28;20962;-81
2021/11/04 09:13:09;;;;;;;63.30;33.33;;;9.70;99.90;;;;;;5072921;28;20204;-82
2021/11/04 09:15:36;;;;;;;74.05;35.85;;;9.70;99.90;;;;;;5066348;28;20194;-81
2021/11/04 09:18:04;;;;;;;67.43;35.35;;;9.80;99.90;;;;;;5075464;28;20220;-82
2021/11/04 09:20:31;;;;;;;62.58;33.08;;;9.80;99.90;;;;;;5072323;28;20234;-81
2021/11/04 09:22:58;;;;;;;54.65;30.60;;;9.80;99.90;;;;;;5072733;28;20202;-82
2021/11/04 09:25:25;;;;;;;66.55;34.38;;;9.90;99.90;;;;;;5064621;28;20198;-80
2021/11/04 09:27:56;;;;;;;74.25;38.55;;;10.00;99.90;;;;;;5077251;28;20298;-81
2021/11/04 09:30:25;;;;;;;62.75;34.33;;;10.00;99.90;;;;;;5072310;28;20214;-81
2021/11/04 09:32:53;;;;;;;64.00;33.60;;;10.10;99.90;;;;;;5067792;28;20202;-82
2021/11/04 09:35:20;;;;;;;56.05;31.92;;;10.10;99.90;;;;;;5073615;28;20291;-83
2021/11/04 09:37:47;;;;;;;59.10;33.90;;;10.10;99.90;;;;;;5070677;28;20202;-82
2021/11/04 09:40:15;;;;;;;65.07;35.78;;;10.20;99.90;;;;;;5073571;28;20219;-81
2021/11/04 09:42:43;;;;;;;59.53;34.53;;;10.20;99.90;;;;;;5073518;28;20192;-81
2021/11/04 09:45:10;;;;;;;61.13;32.83;;;10.20;99.90;;;;;;5069855;28;20210;-81
2021/11/04 09:47:38;;;;;;;59.10;33.17;;;10.20;99.90;;;;;;5067675;28;20204;-81
2021/11/04 09:50:08;;;;;;;56.00;32.60;;;10.20;99.90;;;;;;5078743;28;20202;-82
2021/11/04 09:52:37;;;;;;;59.83;33.50;;;10.20;99.90;;;;;;5076399;28;20201;-82
2021/11/04 09:55:08;;;;;;;56.85;32.80;;;10.30;99.90;;;;;;5081025;28;20198;-82
2021/11/04 09:57:35;;;;;;;61.08;34.40;;;10.30;99.90;;;;;;5081028;28;20654;-82
2021/11/04 10:00:02;;;;;;;62.00;34.15;;;10.40;99.90;;;;;;5080630;28;20650;-82
2021/11/04 10:02:29;;;;;;;59.10;33.50;;;10.40;99.90;;;;;;5076550;28;21027;-81
2021/11/04 10:05:05;;;;;;;59.80;33.20;;;10.40;99.90;;;;;;5072747;28;20199;-81
2021/11/04 10:07:42;;;;;;;59.78;32.70;;;10.40;99.90;;;;;;5073806;28;20210;-83
2021/11/04 10:10:10;;;;;;;51.83;29.90;;;10.40;99.90;;;;;;5076226;28;20192;-82
2021/11/04 10:12:56;;;;;;;61.78;30.60;;;10.50;99.90;;;;;;5074410;28;20210;-83
2021/11/04 10:15:23;;;;;;;57.50;32.88;;;10.50;99.90;;;;;;5080126;28;20198;-82
2021/11/04 10:17:50;;;;;;;54.15;32.00;;;10.50;99.90;;;;;;5072211;28;20546;-83
2021/11/04 10:20:20;;;;;;;51.97;33.30;;;10.60;99.90;;;;;;5074283;28;20215;-82
2021/11/04 10:23:00;;;;;;;48.90;32.40;;;10.60;99.90;;;;;;5070891;28;20204;-82
2021/11/04 10:25:28;;;;;;;59.97;35.35;;;10.70;99.90;;;;;;5074988;28;20190;-80
2021/11/04 10:27:56;;;;;;;52.33;32.80;;;10.70;99.90;;;;;;5081168;28;20211;-82
2021/11/04 10:30:43;;;;;;;51.38;31.40;;;10.70;99.90;;;;;;5078857;28;20282;-82
2021/11/04 10:33:25;;;;;;;51.67;34.17;;;10.70;99.90;;;;;;5072799;28;20207;-82
2021/11/04 10:36:05;;;;;;;53.40;33.75;;;10.80;99.90;;;;;;5074009;28;20212;-82
2021/11/04 10:38:37;;;;;;;55.65;34.63;;;10.80;99.90;;;;;;5076109;28;20294;-82
2021/11/04 10:41:07;;;;;;;53.70;32.58;;;10.90;99.90;;;;;;5074759;28;20211;-81
2021/11/04 10:43:35;;;;;;;54.67;36.45;;;10.90;99.90;;;;;;5075889;28;20987;-80
2021/11/04 10:46:06;;;;;;;48.10;30.42;;;11.00;99.90;;;;;;5068856;28;20720;-81
2021/11/04 10:48:34;;;;;;;58.10;33.72;;;11.00;99.90;;;;;;5070529;28;20206;-81
2021/11/04 10:51:03;;;;;;;47.63;31.95;;;11.00;99.90;;;;;;5076091;28;20286;-80
2021/11/04 10:53:30;;;;;;;54.00;34.78;;;11.10;99.90;;;;;;5074362;28;20196;-81
2021/11/04 10:56:15;;;;;;;49.85;33.05;;;11.10;99.90;;;;;;5079445;28;20203;-79
2021/11/04 10:58:42;;;;;;;49.83;32.22;;;11.10;99.90;;;;;;5070888;28;20760;-82
2021/11/04 11:01:25;;;;;;;59.38;34.05;;;11.10;99.90;;;;;;5068853;28;20232;-80
2021/11/04 11:03:54;;;;;;;55.47;34.30;;;11.10;99.90;;;;;;5069769;28;20200;-80
2021/11/04 11:06:22;;;;;;;45.92;32.83;;;11.20;99.90;;;;;;5073180;28;20268;-81
2021/11/04 11:08:49;;;;;;;51.90;31.95;;;11.20;99.90;;;;;;5081225;28;20196;-82
2021/11/04 11:11:21;;;;;;;49.72;32.92;;;11.20;99.90;;;;;;5075859;28;20245;-79
2021/11/04 11:13:48;;;;;;;49.38;30.70;;;11.20;99.90;;;;;;5076729;28;20579;-80
2021/11/04 11:16:17;;;;;;;47.25;30.67;;;11.30;99.90;;;;;;5070904;28;20197;-80
2021/11/04 11:18:44;;;;;;;46.03;31.17;;;11.30;99.90;;;;;;5074091;28;20203;-81
2021/11/04 11:21:12;;;;;;;53.78;33.67;;;11.30;99.90;;;;;;5074559;28;20259;-80
2021/11/04 11:23:42;;;;;;;41.70;30.23;;;11.40;99.90;;;;;;5077628;28;20284;-80
2021/11/04 11:26:14;;;;;;;46.47;30.37;;;11.40;99.90;;;;;;5072658;28;20506;-80
2021/11/04 11:28:42;;;;;;;53.42;32.60;;;11.40;99.90;;;;;;5066997;28;20458;-80
2021/11/04 11:31:18;;;;;;;38.47;28.98;;;11.40;99.90;;;;;;5068764;28;20258;-83
2021/11/04 11:33:46;;;;;;;44.92;31.13;;;11.40;99.90;;;;;;5079517;28;20999;-81
2021/11/04 11:36:16;;;;;;;43.67;29.57;;;11.50;99.90;;;;;;5074667;28;20196;-83
2021/11/04 11:39:11;;;;;;;43.53;30.10;;;11.50;99.90;;;;;;5077194;28;20462;-82
2021/11/04 11:42:13;;;;;;;42.40;29.00;;;11.60;99.90;;;;;;5071362;28;20218;-82
2021/11/04 11:44:46;;;;;;;40.60;28.15;;;11.60;99.90;;;;;;5076991;28;20813;-80
2021/11/04 11:47:17;;;;;;;43.13;29.37;;;11.60;99.90;;;;;;5075285;28;20188;-84
2021/11/04 11:49:46;;;;;;;38.53;27.23;;;11.70;99.90;;;;;;5070363;28;20467;-81
2021/11/04 11:52:48;;;;;;;36.50;26.83;;;11.70;99.90;;;;;;5075387;28;20505;-82
2021/11/04 11:55:17;;;;;;;36.33;24.50;;;11.70;99.90;;;;;;5079152;28;20823;-82
2021/11/04 11:58:22;;;;;;;32.75;23.35;;;11.70;99.90;;;;;;5079765;28;20489;-81
2021/11/04 12:00:51;;;;;;;39.33;26.53;;;11.70;99.90;;;;;;5078218;28;20237;-82
2021/11/04 12:03:45;;;;;;;33.35;25.98;;;11.70;99.90;;;;;;5078122;28;20463;-82
2021/11/04 12:06:52;;;;;;;34.87;26.83;;;11.80;99.90;;;;;;5074706;28;20655;-81
2021/11/04 12:09:38;;;;;;;28.13;23.30;;;11.80;99.90;;;;;;5075412;28;20450;-84
2021/11/04 12:12:09;;;;;;;30.90;23.10;;;11.80;99.90;;;;;;5078128;28;20895;-82
2021/11/04 12:14:37;;;;;;;29.60;22.27;;;11.80;99.90;;;;;;5076343;28;21184;-81
2021/11/04 12:17:13;;;;;;;30.03;22.30;;;11.80;99.90;;;;;;5072430;28;20192;-82
2021/11/04 12:19:42;;;;;;;32.63;23.20;;;11.80;99.90;;;;;;5065966;28;21117;-80
2021/11/04 12:22:10;;;;;;;26.87;21.23;;;11.80;99.90;;;;;;5066087;28;21020;-84
2021/11/04 12:24:45;;;;;;;25.90;20.80;;;11.80;99.90;;;;;;5080921;28;20446;-82
2021/11/04 12:27:15;;;;;;;30.83;20.47;;;11.80;99.90;;;;;;5079694;28;20556;-84
2021/11/04 12:29:42;;;;;;;24.27;20.07;;;11.80;99.90;;;;;;5077719;28;20551;-82
2021/11/04 12:32:12;;;;;;;29.70;20.88;;;11.80;99.90;;;;;;5072582;28;20549;-84
2021/11/04 12:34:39;;;;;;;26.23;18.53;;;11.80;99.90;;;;;;5069754;28;20295;-85
2021/11/04 12:37:12;;;;;;;26.37;19.20;;;11.70;99.90;;;;;;5071017;28;20469;-81
2021/11/04 12:39:44;;;;;;;24.48;19.33;;;11.80;99.90;;;;;;5076502;28;20844;-83
2021/11/04 12:42:16;;;;;;;20.95;16.48;;;11.80;99.90;;;;;;5067896;28;20219;-83